createdAt,value
2022-11-26T00:00:57.358Z,2.46
2022-11-26T00:03:25.639Z,1.72
2022-11-26T00:05:58.436Z,2.32
2022-11-26T00:08:31.788Z,2.13
2022-11-26T00:11:01.943Z,1.97
2022-11-26T00:13:32.343Z,2.05
2022-11-26T00:16:00.468Z,2.02
2022-11-26T00:18:28.655Z,2.05
2022-11-26T00:21:01.059Z,2.21
2022-11-26T00:23:30.255Z,2.13
2022-11-26T00:26:02.452Z,2.09
2022-11-26T00:28:32.860Z,2.01
2022-11-26T00:31:02.907Z,1.95
2022-11-26T00:33:31.547Z,1.95
2022-11-26T00:36:03.612Z,1.98
2022-11-26T00:38:43.911Z,1.82
2022-11-26T00:41:18.879Z,2.06
2022-11-26T00:43:47.262Z,2.08
2022-11-26T00:46:16.747Z,2.10
2022-11-26T00:48:44.935Z,1.78
2022-11-26T00:51:16.684Z,1.91
2022-11-26T00:53:46.055Z,2.23
2022-11-26T00:56:18.369Z,2.12
2022-11-26T00:58:47.604Z,2.22
2022-11-26T01:01:24.744Z,2.27
2022-11-26T01:03:53.633Z,2.08
2022-11-26T01:06:24.556Z,2.28
2022-11-26T01:08:53.114Z,1.27
2022-11-26T01:11:24.592Z,2.10
2022-11-26T01:13:54.668Z,2.06
2022-11-26T01:16:25.593Z,2.05
2022-11-26T01:18:55.578Z,2.08
2022-11-26T01:21:25.831Z,2.13
2022-11-26T01:23:54.107Z,1.99
2022-11-26T01:26:27.565Z,2.02
2022-11-26T01:28:56.321Z,1.45
2022-11-26T01:31:26.949Z,2.16
2022-11-26T01:33:55.577Z,2.12
2022-11-26T01:36:28.136Z,1.93
2022-11-26T01:38:57.300Z,1.88
2022-11-26T01:41:44.473Z,1.96
2022-11-26T01:44:18.786Z,2.01
2022-11-26T01:46:48.139Z,1.87
2022-11-26T01:49:18.794Z,1.89
2022-11-26T01:51:49.244Z,1.88
2022-11-26T01:54:19.023Z,2.02
2022-11-26T01:56:51.471Z,1.94
2022-11-26T01:59:24.697Z,1.92
2022-11-26T02:01:54.994Z,1.97
2022-11-26T02:04:26.344Z,1.98
2022-11-26T02:06:55.872Z,1.94
2022-11-26T02:09:25.406Z,1.90
2022-11-26T02:11:55.382Z,1.86
2022-11-26T02:14:26.662Z,1.88
2022-11-26T02:17:14.726Z,1.86
2022-11-26T02:20:30.291Z,1.96
2022-11-26T02:23:29.472Z,1.93
2022-11-26T02:26:38.812Z,1.93
2022-11-26T02:29:16.107Z,1.91
2022-11-26T02:31:50.158Z,1.92
2022-11-26T02:34:25.112Z,1.91
2022-11-26T02:36:56.664Z,1.88
2022-11-26T02:39:27.667Z,1.21
2022-11-26T02:41:57.817Z,1.95
2022-11-26T02:44:29.702Z,2.01
2022-11-26T02:47:04.087Z,2.00
2022-11-26T02:49:34.537Z,1.98
2022-11-26T02:52:06.288Z,2.06
2022-11-26T02:54:36.908Z,1.99
2022-11-26T02:57:08.628Z,2.06
2022-11-26T02:59:38.574Z,2.08
2022-11-26T03:02:13.244Z,1.93
2022-11-26T03:04:46.852Z,1.99
2022-11-26T03:07:17.198Z,1.88
2022-11-26T03:09:52.768Z,1.97
2022-11-26T03:12:22.118Z,1.93
2022-11-26T03:14:51.019Z,1.95
2022-11-26T03:17:21.416Z,2.01
2022-11-26T03:19:50.197Z,1.98
2022-11-26T03:22:19.667Z,1.54
2022-11-26T03:24:48.569Z,2.09
2022-11-26T03:27:17.246Z,2.12
2022-11-26T03:29:46.031Z,2.06
2022-11-26T03:32:14.718Z,2.14
2022-11-26T03:34:44.988Z,2.28
2022-11-26T03:37:13.977Z,2.22
2022-11-26T03:39:43.048Z,2.29
2022-11-26T03:42:11.677Z,2.25
2022-11-26T03:44:40.700Z,2.32
2022-11-26T03:47:09.449Z,1.73
2022-11-26T03:49:38.107Z,2.48
2022-11-26T03:52:08.349Z,2.35
2022-11-26T03:54:37.410Z,2.31
2022-11-26T03:57:06.628Z,2.30
2022-11-26T03:59:35.261Z,2.31
2022-11-26T04:02:03.948Z,2.34
2022-11-26T04:04:32.661Z,2.38
2022-11-26T04:07:01.330Z,2.44
2022-11-26T04:09:31.429Z,2.49
2022-11-26T04:12:00.419Z,2.50
2022-11-26T04:14:29.288Z,2.30
2022-11-26T04:16:58.030Z,2.36
2022-11-26T04:19:26.790Z,2.49
2022-11-26T04:21:55.419Z,2.43
2022-11-26T04:24:24.057Z,2.44
2022-11-26T04:26:54.189Z,2.48
2022-11-26T04:29:22.788Z,2.38
2022-11-26T04:31:51.197Z,2.53
2022-11-26T04:34:19.829Z,2.46
2022-11-26T04:36:48.508Z,2.42
2022-11-26T04:39:17.268Z,2.59
2022-11-26T04:41:45.988Z,2.35
2022-11-26T04:44:16.039Z,2.37
2022-11-26T04:46:44.828Z,2.49
2022-11-26T04:49:13.298Z,2.43
2022-11-26T04:51:41.839Z,2.43
2022-11-26T04:54:13.190Z,2.59
2022-11-26T04:56:42.345Z,2.63
2022-11-26T04:59:11.188Z,2.53
2022-11-26T05:01:41.278Z,2.62
2022-11-26T05:04:09.902Z,2.42
2022-11-26T05:06:38.489Z,2.42
2022-11-26T05:09:07.229Z,2.38
2022-11-26T05:11:35.869Z,2.13
2022-11-26T05:14:04.529Z,2.33
2022-11-26T05:16:33.094Z,2.34
2022-11-26T05:19:03.239Z,2.34
2022-11-26T05:21:31.939Z,2.23
2022-11-26T05:24:00.618Z,2.35
2022-11-26T05:26:29.289Z,2.52
2022-11-26T05:28:57.938Z,2.67
2022-11-26T05:31:26.739Z,2.63
2022-11-26T05:33:55.279Z,2.67
2022-11-26T05:36:25.432Z,2.58
2022-11-26T05:38:53.939Z,2.44
2022-11-26T05:41:22.229Z,2.58
2022-11-26T05:43:50.779Z,2.58
2022-11-26T05:46:20.688Z,2.66
2022-11-26T05:48:49.358Z,2.58
2022-11-26T05:51:18.038Z,2.24
2022-11-26T05:53:48.088Z,2.48
2022-11-26T05:56:16.861Z,2.40
2022-11-26T05:58:45.680Z,2.47
2022-11-26T06:01:14.419Z,2.46
2022-11-26T06:03:43.264Z,2.27
2022-11-26T06:06:11.987Z,2.48
2022-11-26T06:08:40.638Z,2.44
2022-11-26T06:11:13.012Z,2.47
2022-11-26T06:13:42.079Z,2.51
2022-11-26T06:16:11.233Z,2.55
2022-11-26T06:18:40.482Z,2.48
2022-11-26T06:21:09.258Z,2.67
2022-11-26T06:23:37.879Z,2.32
2022-11-26T06:26:14.189Z,2.57
2022-11-26T06:28:43.107Z,2.55
2022-11-26T06:31:12.216Z,2.63
2022-11-26T06:33:40.877Z,2.63
2022-11-26T06:36:09.571Z,2.49
2022-11-26T06:38:38.278Z,2.68
2022-11-26T06:41:09.128Z,2.59
2022-11-26T06:43:39.859Z,2.74
2022-11-26T06:46:10.235Z,2.74
2022-11-26T06:48:40.448Z,2.76
2022-11-26T06:51:11.517Z,2.73
2022-11-26T06:53:40.537Z,2.76
2022-11-26T06:56:18.158Z,2.84
2022-11-26T06:58:49.439Z,2.69
2022-11-26T07:01:20.766Z,2.33
2022-11-26T07:03:49.651Z,2.59
2022-11-26T07:06:19.597Z,2.74
2022-11-26T07:08:48.819Z,2.75
2022-11-26T07:11:17.910Z,2.65
2022-11-26T07:13:46.657Z,2.79
2022-11-26T07:16:17.079Z,2.87
2022-11-26T07:18:50.474Z,2.74
2022-11-26T07:21:20.328Z,2.87
2022-11-26T07:23:50.077Z,3.04
2022-11-26T07:26:22.146Z,3.16
2022-11-26T07:28:51.090Z,3.18
2022-11-26T07:31:24.426Z,3.20
2022-11-26T07:33:54.753Z,3.13
2022-11-26T07:36:25.726Z,3.30
2022-11-26T07:38:56.124Z,2.31
2022-11-26T07:41:26.256Z,3.43
2022-11-26T07:43:55.508Z,3.33
2022-11-26T07:46:28.071Z,3.46
2022-11-26T07:48:58.119Z,3.29
2022-11-26T07:51:29.108Z,3.53
2022-11-26T07:53:59.268Z,3.39
2022-11-26T07:56:28.338Z,3.69
2022-11-26T07:58:57.317Z,3.63
2022-11-26T08:01:30.025Z,3.61
2022-11-26T08:04:00.307Z,3.62
2022-11-26T08:06:31.426Z,3.88
2022-11-26T08:09:02.814Z,3.96
2022-11-26T08:11:33.238Z,3.57
2022-11-26T08:14:04.237Z,3.95
2022-11-26T08:16:35.677Z,3.99
2022-11-26T08:19:06.878Z,3.99
2022-11-26T08:21:36.247Z,3.86
2022-11-26T08:24:05.259Z,4.25
2022-11-26T08:26:39.695Z,4.36
2022-11-26T08:29:12.717Z,4.42
2022-11-26T08:31:46.019Z,4.32
2022-11-26T08:34:18.248Z,4.68
2022-11-26T08:36:47.809Z,4.82
2022-11-26T08:39:17.687Z,4.94
2022-11-26T08:41:52.051Z,4.99
2022-11-26T08:44:21.487Z,4.97
2022-11-26T08:46:51.696Z,5.13
2022-11-26T08:49:20.647Z,5.27
2022-11-26T08:51:49.468Z,5.33
2022-11-26T08:54:18.103Z,5.25
2022-11-26T08:56:46.897Z,5.47
2022-11-26T08:59:16.568Z,5.23
2022-11-26T09:01:45.210Z,5.49
2022-11-26T09:04:15.577Z,5.52
2022-11-26T09:06:44.242Z,5.67
2022-11-26T09:09:15.768Z,5.68
2022-11-26T09:11:46.967Z,5.63
2022-11-26T09:14:17.305Z,5.59
2022-11-26T09:16:46.393Z,5.29
2022-11-26T09:19:16.916Z,5.67
2022-11-26T09:21:46.069Z,5.84
2022-11-26T09:24:15.068Z,5.74
2022-11-26T09:26:43.847Z,6.22
2022-11-26T09:29:15.228Z,6.28
2022-11-26T09:32:07.534Z,6.25
2022-11-26T09:34:35.377Z,6.24
2022-11-26T09:37:04.349Z,6.18
2022-11-26T09:39:33.116Z,4.21
2022-11-26T09:42:07.690Z,6.49
2022-11-26T09:44:55.338Z,6.64
2022-11-26T09:47:26.969Z,6.85
2022-11-26T09:50:05.778Z,7.11
2022-11-26T09:52:39.898Z,7.33
2022-11-26T09:55:18.737Z,7.57
2022-11-26T09:57:53.658Z,7.57
2022-11-26T10:00:28.017Z,7.70
2022-11-26T10:02:58.238Z,7.71
2022-11-26T10:05:41.249Z,7.78
2022-11-26T10:08:23.818Z,7.84
2022-11-26T10:11:03.584Z,7.78
2022-11-26T10:13:46.327Z,7.91
2022-11-26T10:16:25.743Z,7.99
2022-11-26T10:19:03.277Z,7.77
2022-11-26T10:21:58.312Z,8.08
2022-11-26T10:24:33.689Z,8.16
2022-11-26T10:27:06.959Z,8.20
2022-11-26T10:29:40.456Z,8.31
2022-11-26T10:32:16.191Z,8.36
2022-11-26T10:34:52.958Z,8.64
2022-11-26T10:37:25.510Z,8.80
2022-11-26T10:40:04.395Z,7.99
2022-11-26T10:42:42.601Z,9.07
2022-11-26T10:45:19.690Z,9.18
2022-11-26T10:47:48.627Z,9.29
2022-11-26T10:53:23.141Z,9.45
2022-11-26T10:55:53.397Z,9.66
2022-11-26T10:58:26.047Z,9.71
2022-11-26T11:01:02.068Z,9.39
2022-11-26T11:06:39.978Z,10.16
2022-11-26T11:09:32.197Z,10.29
2022-11-26T11:12:19.179Z,10.35
2022-11-26T11:14:48.658Z,10.25
2022-11-26T11:17:31.648Z,10.38
2022-11-26T11:20:05.128Z,10.57
2022-11-26T11:22:33.889Z,10.90
2022-11-26T11:25:04.639Z,11.17
2022-11-26T11:27:43.758Z,11.43
2022-11-26T11:30:25.847Z,11.62
2022-11-26T11:32:58.161Z,11.75
2022-11-26T11:35:30.649Z,11.55
2022-11-26T11:38:00.189Z,11.96
2022-11-26T11:40:33.704Z,11.83
2022-11-26T11:43:05.806Z,11.80
2022-11-26T11:45:36.722Z,11.79
2022-11-26T11:48:19.067Z,11.91
2022-11-26T11:50:56.699Z,11.84
2022-11-26T11:53:36.768Z,11.31
2022-11-26T11:56:23.099Z,11.51
2022-11-26T11:59:18.222Z,11.34
2022-11-26T12:02:04.586Z,11.04
2022-11-26T12:04:53.205Z,11.11
2022-11-26T12:07:40.622Z,10.94
2022-11-26T12:10:16.798Z,10.69
2022-11-26T12:12:52.642Z,10.67
2022-11-26T12:15:29.986Z,10.54
2022-11-26T12:18:20.448Z,10.24
2022-11-26T12:20:53.848Z,9.95
2022-11-26T12:23:34.577Z,10.34
2022-11-26T12:26:12.738Z,10.25
2022-11-26T12:28:52.637Z,10.18
2022-11-26T12:31:28.620Z,10.27
2022-11-26T12:34:08.568Z,10.32
2022-11-26T12:36:45.007Z,10.30
2022-11-26T12:39:20.019Z,10.35
2022-11-26T12:41:54.687Z,10.41
2022-11-26T12:44:32.988Z,10.27
2022-11-26T12:47:11.357Z,10.02
2022-11-26T12:49:49.818Z,10.01
2022-11-26T12:52:31.188Z,9.82
2022-11-26T12:55:11.718Z,9.76
2022-11-26T12:57:43.317Z,9.58
2022-11-26T13:00:25.166Z,9.29
2022-11-26T13:02:56.018Z,9.58
2022-11-26T13:05:32.616Z,9.62
2022-11-26T13:08:26.537Z,9.60
2022-11-26T13:11:10.052Z,9.54
2022-11-26T13:13:45.518Z,9.57
2022-11-26T13:16:25.283Z,9.53
2022-11-26T13:18:57.727Z,9.79
2022-11-26T13:21:42.777Z,9.69
2022-11-26T13:24:27.538Z,9.63
2022-11-26T13:27:08.211Z,9.49
2022-11-26T13:30:14.998Z,9.31
2022-11-26T13:33:27.667Z,9.26
2022-11-26T13:36:27.696Z,8.98
2022-11-26T13:39:14.448Z,9.19
2022-11-26T13:42:18.597Z,9.17
2022-11-26T13:45:30.266Z,8.98
2022-11-26T13:48:04.188Z,8.89
2022-11-26T13:50:42.202Z,8.97
2022-11-26T13:53:18.716Z,8.81
2022-11-26T13:55:53.780Z,8.90
2022-11-26T13:58:24.849Z,8.97
2022-11-26T14:00:53.483Z,8.16
2022-11-26T14:03:46.838Z,8.72
2022-11-26T14:06:17.328Z,8.70
2022-11-26T14:08:47.579Z,8.56
2022-11-26T14:11:57.812Z,8.48
2022-11-26T14:14:38.528Z,8.43
2022-11-26T14:17:19.280Z,8.37
2022-11-26T14:20:08.344Z,8.29
2022-11-26T14:22:38.959Z,8.20
2022-11-26T14:25:16.974Z,7.76
2022-11-26T14:27:56.017Z,8.05
2022-11-26T14:30:26.828Z,7.75
2022-11-26T14:33:03.247Z,7.78
2022-11-26T14:35:35.269Z,7.55
2022-11-26T14:38:07.868Z,7.60
2022-11-26T14:40:38.371Z,7.67
2022-11-26T14:43:15.281Z,7.53
2022-11-26T14:45:45.950Z,7.49
2022-11-26T14:48:25.162Z,7.52
2022-11-26T14:50:55.357Z,7.50
2022-11-26T14:53:29.518Z,7.34
2022-11-26T14:55:58.797Z,7.57
2022-11-26T14:58:34.127Z,7.13
2022-11-26T15:01:08.599Z,7.43
2022-11-26T15:03:37.348Z,7.43
2022-11-26T15:06:06.267Z,7.26
2022-11-26T15:08:36.447Z,7.12
2022-11-26T15:11:08.587Z,6.90
2022-11-26T15:13:41.389Z,6.93
2022-11-26T15:16:28.252Z,6.73
2022-11-26T15:18:58.409Z,6.21
2022-11-26T15:21:29.457Z,6.83
2022-11-26T15:24:04.053Z,6.77
2022-11-26T15:26:36.227Z,6.68
2022-11-26T15:29:22.368Z,6.75
2022-11-26T15:31:51.017Z,6.62
2022-11-26T15:34:20.069Z,6.71
2022-11-26T15:36:48.757Z,6.68
2022-11-26T15:39:27.948Z,6.46
2022-11-26T15:42:01.577Z,6.59
2022-11-26T15:44:31.999Z,6.18
2022-11-26T15:47:02.608Z,6.37
2022-11-26T15:49:35.777Z,6.32
2022-11-26T15:52:09.541Z,6.10
2022-11-26T15:55:11.970Z,6.15
2022-11-26T15:57:34.384Z,5.87
2022-11-26T16:00:08.659Z,4.88
2022-11-26T16:02:41.334Z,6.00
2022-11-26T16:05:25.117Z,5.83
2022-11-26T16:08:01.907Z,5.85
2022-11-26T16:10:35.892Z,5.82
2022-11-26T16:13:24.487Z,5.70
2022-11-26T16:16:01.313Z,5.63
2022-11-26T16:18:37.587Z,5.17
2022-11-26T16:21:10.169Z,5.32
2022-11-26T16:23:38.969Z,5.46
2022-11-26T16:26:12.203Z,5.37
2022-11-26T16:28:41.122Z,5.34
2022-11-26T16:31:09.828Z,5.24
2022-11-26T16:33:38.564Z,5.28
2022-11-26T16:36:24.584Z,5.21
2022-11-26T16:38:53.956Z,5.28
2022-11-26T16:41:24.574Z,5.14
2022-11-26T16:43:53.475Z,5.15
2022-11-26T16:46:24.906Z,3.91
2022-11-26T16:48:53.757Z,5.06
2022-11-26T16:51:22.943Z,4.96
2022-11-26T16:53:51.684Z,5.03
2022-11-26T16:56:24.564Z,5.04
2022-11-26T16:58:53.783Z,5.09
2022-11-26T17:01:22.476Z,5.14
2022-11-26T17:03:51.177Z,5.05
2022-11-26T17:06:26.136Z,5.08
2022-11-26T17:08:57.094Z,4.92
2022-11-26T17:11:27.375Z,4.81
2022-11-26T17:13:57.424Z,4.73
2022-11-26T17:16:26.507Z,4.55
2022-11-26T17:18:55.263Z,4.62
2022-11-26T17:21:24.135Z,4.62
2022-11-26T17:23:52.778Z,4.59
2022-11-26T17:26:22.744Z,4.60
2022-11-26T17:28:53.037Z,4.55
2022-11-26T17:31:21.678Z,4.42
2022-11-26T17:33:51.325Z,4.58
2022-11-26T17:36:21.873Z,4.64
2022-11-26T17:38:51.594Z,4.62
2022-11-26T17:41:20.469Z,4.64
2022-11-26T17:43:49.176Z,4.57
2022-11-26T17:46:22.516Z,4.54
2022-11-26T17:48:56.912Z,4.54
2022-11-26T17:51:28.161Z,4.57
2022-11-26T17:53:56.963Z,4.57
2022-11-26T17:56:27.152Z,4.43
2022-11-26T17:58:56.043Z,4.50
2022-11-26T18:01:26.196Z,4.46
2022-11-26T18:03:55.053Z,4.40
2022-11-26T18:06:34.509Z,4.39
2022-11-26T18:09:03.303Z,4.41
2022-11-26T18:11:44.734Z,4.07
2022-11-26T18:14:13.953Z,4.40
2022-11-26T18:16:44.395Z,4.39
2022-11-26T18:19:14.974Z,4.17
2022-11-26T18:21:43.984Z,4.15
2022-11-26T18:24:13.014Z,4.35
2022-11-26T18:26:42.064Z,4.30
2022-11-26T18:29:11.213Z,3.97
2022-11-26T18:31:40.301Z,4.16
2022-11-26T18:34:11.489Z,4.01
2022-11-26T18:36:40.184Z,4.01
2022-11-26T18:39:09.313Z,4.04
2022-11-26T18:41:39.185Z,4.03
2022-11-26T18:44:07.855Z,3.64
2022-11-26T18:46:37.637Z,3.63
2022-11-26T18:49:06.354Z,3.98
2022-11-26T18:51:36.343Z,3.87
2022-11-26T18:54:05.076Z,3.96
2022-11-26T18:56:33.756Z,3.94
2022-11-26T18:59:02.373Z,3.77
2022-11-26T19:01:45.900Z,3.65
2022-11-26T19:08:18.600Z,3.83
2022-11-26T19:10:47.065Z,3.81
2022-11-26T19:13:15.365Z,2.59
2022-11-26T19:15:43.922Z,3.70
2022-11-26T19:18:13.705Z,3.54
2022-11-26T19:20:49.629Z,3.69
2022-11-26T19:23:24.314Z,3.57
2022-11-26T19:25:52.505Z,3.62
2022-11-26T19:28:20.714Z,3.51
2022-11-26T19:30:59.621Z,2.82
2022-11-26T19:33:27.834Z,3.56
2022-11-26T19:35:56.202Z,3.55
2022-11-26T19:38:26.604Z,2.96
2022-11-26T19:40:57.529Z,3.55
2022-11-26T19:43:27.360Z,3.42
2022-11-26T19:46:03.232Z,3.44
2022-11-26T19:48:31.616Z,3.53
2022-11-26T19:50:59.806Z,3.50
2022-11-26T19:53:29.616Z,3.49
2022-11-26T19:55:59.151Z,2.43
2022-11-26T19:58:27.842Z,3.58
2022-11-26T20:00:56.174Z,3.45
2022-11-26T20:03:25.400Z,2.77
2022-11-26T20:05:54.120Z,3.19
2022-11-26T20:08:22.503Z,3.14
2022-11-26T20:10:52.172Z,3.11
2022-11-26T20:13:20.385Z,3.28
2022-11-26T20:15:49.192Z,3.12
2022-11-26T20:18:17.414Z,3.18
2022-11-26T20:20:45.569Z,3.13
2022-11-26T20:23:14.224Z,3.16
2022-11-26T20:25:42.528Z,2.70
2022-11-26T20:28:12.352Z,3.09
2022-11-26T20:30:40.572Z,2.90
2022-11-26T20:33:08.811Z,2.96
2022-11-26T20:35:40.808Z,2.60
2022-11-26T20:38:09.208Z,2.75
2022-11-26T20:40:39.714Z,3.01
2022-11-26T20:43:07.911Z,2.94
2022-11-26T20:45:38.536Z,1.78
2022-11-26T20:48:07.052Z,2.85
2022-11-26T20:50:35.299Z,1.28
2022-11-26T20:53:03.519Z,2.82
2022-11-26T20:55:31.720Z,2.52
2022-11-26T20:57:59.995Z,2.70
2022-11-26T21:00:28.264Z,1.67
2022-11-26T21:02:57.917Z,2.68
2022-11-26T21:05:26.135Z,2.67
2022-11-26T21:07:54.394Z,2.73
2022-11-26T21:10:25.325Z,2.67
2022-11-26T21:12:53.487Z,2.63
2022-11-26T21:15:22.555Z,2.63
2022-11-26T21:17:50.918Z,2.46
2022-11-26T21:20:20.865Z,2.60
2022-11-26T21:22:49.057Z,1.80
2022-11-26T21:25:17.370Z,2.60
2022-11-26T21:27:45.565Z,2.62
2022-11-26T21:30:14.815Z,2.64
2022-11-26T21:32:43.080Z,2.42
2022-11-26T21:35:11.779Z,2.56
2022-11-26T21:37:41.338Z,2.49
2022-11-26T21:40:10.997Z,2.58
2022-11-26T21:42:39.177Z,1.62
2022-11-26T21:45:08.943Z,2.10
2022-11-26T21:47:37.145Z,2.63
2022-11-26T21:50:06.240Z,2.67
2022-11-26T21:52:34.399Z,2.29
2022-11-26T21:55:04.139Z,2.40
2022-11-26T21:57:32.728Z,2.35
2022-11-26T22:00:00.890Z,2.37
2022-11-26T22:02:29.160Z,2.35
2022-11-26T22:04:58.059Z,2.34
2022-11-26T22:07:27.069Z,2.25
2022-11-26T22:09:55.482Z,2.25
2022-11-26T22:12:25.472Z,2.37
2022-11-26T22:14:53.546Z,2.23
2022-11-26T22:17:21.740Z,2.34
2022-11-26T22:19:50.056Z,2.32
2022-11-26T22:22:18.303Z,2.21
2022-11-26T22:24:46.412Z,2.07
2022-11-26T22:27:14.472Z,2.30
2022-11-26T22:29:53.809Z,2.41
2022-11-26T22:32:21.997Z,2.37
2022-11-26T22:34:50.167Z,2.25
2022-11-26T22:37:18.480Z,2.42
2022-11-26T22:39:51.077Z,2.41
2022-11-26T22:42:21.769Z,1.86
2022-11-26T22:44:51.286Z,2.34
2022-11-26T22:47:19.705Z,2.28
2022-11-26T22:49:49.027Z,2.25
2022-11-26T22:52:17.178Z,2.16
2022-11-26T22:54:45.366Z,2.26
2022-11-26T22:57:13.576Z,2.17
2022-11-26T22:59:42.031Z,2.30
2022-11-26T23:02:11.925Z,2.35
2022-11-26T23:04:40.082Z,2.24
2022-11-26T23:07:08.371Z,2.00
2022-11-26T23:09:36.686Z,1.72
2022-11-26T23:12:05.233Z,1.26
2022-11-26T23:14:33.484Z,1.53
2022-11-26T23:17:01.631Z,1.54
2022-11-26T23:19:31.348Z,1.59
2022-11-26T23:21:59.443Z,1.55
2022-11-26T23:24:30.146Z,1.67
2022-11-26T23:26:58.308Z,1.68
2022-11-26T23:29:26.415Z,1.74
2022-11-26T23:31:54.776Z,1.67
2022-11-26T23:34:22.909Z,1.77
2022-11-26T23:36:52.531Z,0.71
2022-11-26T23:39:20.632Z,1.33
2022-11-26T23:41:48.807Z,1.65
2022-11-26T23:44:16.926Z,1.65
2022-11-26T23:46:45.185Z,1.65
2022-11-26T23:49:13.369Z,1.50
2022-11-26T23:51:41.494Z,1.65
2022-11-26T23:54:11.036Z,1.30
2022-11-26T23:56:39.220Z,1.53
2022-11-26T23:59:07.567Z,1.54
